sensor_id;sensor_type;location;lat;lon;timestamp;P1;durP1;ratioP1;P2;durP2;ratioP2
64957;SDS011;51486;50.232;19.208;2022-08-18T00:00:49;14.27;;;8.60;;
64957;SDS011;51486;50.232;19.208;2022-08-18T00:03:15;15.80;;;8.50;;
64957;SDS011;51486;50.232;19.208;2022-08-18T00:05:43;18.53;;;9.57;;
64957;SDS011;51486;50.232;19.208;2022-08-18T00:08:09;17.77;;;9.93;;
64957;SDS011;51486;50.232;19.208;2022-08-18T00:10:34;16.17;;;9.63;;
64957;SDS011;51486;50.232;19.208;2022-08-18T00:13:00;16.87;;;10.33;;
64957;SDS011;51486;50.232;19.208;2022-08-18T00:15:25;19.03;;;9.83;;
64957;SDS011;51486;50.232;19.208;2022-08-18T00:17:51;20.57;;;10.00;;
64957;SDS011;51486;50.232;19.208;2022-08-18T00:20:18;19.97;;;10.23;;
64957;SDS011;51486;50.232;19.208;2022-08-18T00:22:47;18.70;;;9.17;;
64957;SDS011;51486;50.232;19.208;2022-08-18T00:25:14;17.70;;;9.77;;
64957;SDS011;51486;50.232;19.208;2022-08-18T00:27:40;17.03;;;8.53;;
64957;SDS011;51486;50.232;19.208;2022-08-18T00:30:07;14.17;;;9.23;;
64957;SDS011;51486;50.232;19.208;2022-08-18T00:32:36;15.53;;;9.37;;
64957;SDS011;51486;50.232;19.208;2022-08-18T00:35:09;22.30;;;9.97;;
64957;SDS011;51486;50.232;19.208;2022-08-18T00:37:38;16.07;;;8.83;;
64957;SDS011;51486;50.232;19.208;2022-08-18T00:40:04;13.87;;;8.03;;
64957;SDS011;51486;50.232;19.208;2022-08-18T00:42:31;20.33;;;10.17;;
64957;SDS011;51486;50.232;19.208;2022-08-18T00:45:00;13.63;;;8.10;;
64957;SDS011;51486;50.232;19.208;2022-08-18T00:47:28;15.73;;;8.77;;
64957;SDS011;51486;50.232;19.208;2022-08-18T00:49:54;20.63;;;9.57;;
64957;SDS011;51486;50.232;19.208;2022-08-18T00:52:20;13.93;;;8.70;;
64957;SDS011;51486;50.232;19.208;2022-08-18T00:54:46;19.50;;;9.73;;
64957;SDS011;51486;50.232;19.208;2022-08-18T00:57:12;25.13;;;9.97;;
64957;SDS011;51486;50.232;19.208;2022-08-18T01:02:11;19.00;;;9.87;;
64957;SDS011;51486;50.232;19.208;2022-08-18T01:07:42;17.10;;;8.70;;
64957;SDS011;51486;50.232;19.208;2022-08-18T01:10:10;14.07;;;9.20;;
64957;SDS011;51486;50.232;19.208;2022-08-18T01:12:40;16.40;;;9.27;;
64957;SDS011;51486;50.232;19.208;2022-08-18T01:15:07;16.27;;;9.20;;
64957;SDS011;51486;50.232;19.208;2022-08-18T01:17:33;15.70;;;8.53;;
64957;SDS011;51486;50.232;19.208;2022-08-18T01:20:18;15.27;;;8.90;;
64957;SDS011;51486;50.232;19.208;2022-08-18T01:23:20;18.13;;;8.70;;
64957;SDS011;51486;50.232;19.208;2022-08-18T01:25:47;14.53;;;9.07;;
64957;SDS011;51486;50.232;19.208;2022-08-18T01:28:32;21.83;;;8.93;;
64957;SDS011;51486;50.232;19.208;2022-08-18T01:30:59;15.30;;;9.53;;
64957;SDS011;51486;50.232;19.208;2022-08-18T01:33:27;14.83;;;9.30;;
64957;SDS011;51486;50.232;19.208;2022-08-18T01:35:58;17.80;;;9.33;;
64957;SDS011;51486;50.232;19.208;2022-08-18T01:38:27;17.57;;;9.20;;
64957;SDS011;51486;50.232;19.208;2022-08-18T01:40:56;16.10;;;9.07;;
64957;SDS011;51486;50.232;19.208;2022-08-18T01:43:21;23.23;;;10.93;;
64957;SDS011;51486;50.232;19.208;2022-08-18T01:45:47;21.10;;;10.07;;
64957;SDS011;51486;50.232;19.208;2022-08-18T01:48:13;19.13;;;10.13;;
64957;SDS011;51486;50.232;19.208;2022-08-18T01:50:38;19.20;;;9.73;;
64957;SDS011;51486;50.232;19.208;2022-08-18T01:53:05;17.73;;;10.20;;
64957;SDS011;51486;50.232;19.208;2022-08-18T01:55:35;19.03;;;10.10;;
64957;SDS011;51486;50.232;19.208;2022-08-18T01:58:02;25.63;;;10.50;;
64957;SDS011;51486;50.232;19.208;2022-08-18T02:00:28;18.93;;;9.93;;
64957;SDS011;51486;50.232;19.208;2022-08-18T02:02:56;26.43;;;11.07;;
64957;SDS011;51486;50.232;19.208;2022-08-18T02:05:23;16.80;;;9.13;;
64957;SDS011;51486;50.232;19.208;2022-08-18T02:07:55;17.03;;;9.37;;
64957;SDS011;51486;50.232;19.208;2022-08-18T02:10:20;26.80;;;9.80;;
64957;SDS011;51486;50.232;19.208;2022-08-18T02:12:45;18.40;;;9.90;;
64957;SDS011;51486;50.232;19.208;2022-08-18T02:15:11;14.60;;;8.83;;
64957;SDS011;51486;50.232;19.208;2022-08-18T02:17:38;17.47;;;8.77;;
64957;SDS011;51486;50.232;19.208;2022-08-18T02:20:06;17.30;;;9.50;;
64957;SDS011;51486;50.232;19.208;2022-08-18T02:22:32;24.97;;;10.77;;
64957;SDS011;51486;50.232;19.208;2022-08-18T02:24:58;18.10;;;8.83;;
64957;SDS011;51486;50.232;19.208;2022-08-18T02:27:25;20.77;;;9.50;;
64957;SDS011;51486;50.232;19.208;2022-08-18T02:29:51;21.03;;;9.10;;
64957;SDS011;51486;50.232;19.208;2022-08-18T02:32:16;17.13;;;10.33;;
64957;SDS011;51486;50.232;19.208;2022-08-18T02:34:42;16.97;;;9.57;;
64957;SDS011;51486;50.232;19.208;2022-08-18T02:37:07;18.80;;;9.57;;
64957;SDS011;51486;50.232;19.208;2022-08-18T02:39:34;15.63;;;9.40;;
64957;SDS011;51486;50.232;19.208;2022-08-18T02:42:02;18.17;;;9.90;;
64957;SDS011;51486;50.232;19.208;2022-08-18T02:44:31;18.33;;;9.23;;
64957;SDS011;51486;50.232;19.208;2022-08-18T02:46:58;18.37;;;9.60;;
64957;SDS011;51486;50.232;19.208;2022-08-18T02:49:24;14.37;;;9.03;;
64957;SDS011;51486;50.232;19.208;2022-08-18T02:51:53;17.90;;;8.97;;
64957;SDS011;51486;50.232;19.208;2022-08-18T02:54:21;17.87;;;9.87;;
64957;SDS011;51486;50.232;19.208;2022-08-18T02:56:48;17.20;;;9.20;;
64957;SDS011;51486;50.232;19.208;2022-08-18T02:59:18;15.03;;;8.50;;
64957;SDS011;51486;50.232;19.208;2022-08-18T03:01:47;23.97;;;8.97;;
64957;SDS011;51486;50.232;19.208;2022-08-18T03:04:17;14.67;;;9.10;;
64957;SDS011;51486;50.232;19.208;2022-08-18T03:06:45;17.03;;;9.57;;
64957;SDS011;51486;50.232;19.208;2022-08-18T03:09:11;19.60;;;8.60;;
64957;SDS011;51486;50.232;19.208;2022-08-18T03:11:38;17.17;;;9.03;;
64957;SDS011;51486;50.232;19.208;2022-08-18T03:14:04;12.30;;;8.33;;
64957;SDS011;51486;50.232;19.208;2022-08-18T03:16:30;16.73;;;8.80;;
64957;SDS011;51486;50.232;19.208;2022-08-18T03:18:56;17.47;;;9.03;;
64957;SDS011;51486;50.232;19.208;2022-08-18T03:21:23;15.30;;;8.63;;
64957;SDS011;51486;50.232;19.208;2022-08-18T03:23:51;15.03;;;7.83;;
64957;SDS011;51486;50.232;19.208;2022-08-18T03:26:18;14.10;;;8.00;;
64957;SDS011;51486;50.232;19.208;2022-08-18T03:28:46;16.60;;;9.10;;
64957;SDS011;51486;50.232;19.208;2022-08-18T03:31:13;18.03;;;9.40;;
64957;SDS011;51486;50.232;19.208;2022-08-18T03:33:41;19.77;;;9.07;;
64957;SDS011;51486;50.232;19.208;2022-08-18T03:36:08;21.57;;;10.13;;
64957;SDS011;51486;50.232;19.208;2022-08-18T03:38:39;22.50;;;9.13;;
64957;SDS011;51486;50.232;19.208;2022-08-18T03:41:05;13.87;;;8.33;;
64957;SDS011;51486;50.232;19.208;2022-08-18T03:43:33;15.50;;;7.70;;
64957;SDS011;51486;50.232;19.208;2022-08-18T03:46:02;13.77;;;8.17;;
64957;SDS011;51486;50.232;19.208;2022-08-18T03:48:29;13.47;;;7.60;;
64957;SDS011;51486;50.232;19.208;2022-08-18T03:51:00;17.07;;;8.73;;
64957;SDS011;51486;50.232;19.208;2022-08-18T03:53:27;14.03;;;8.80;;
64957;SDS011;51486;50.232;19.208;2022-08-18T03:55:52;15.93;;;8.00;;
64957;SDS011;51486;50.232;19.208;2022-08-18T03:58:18;34.30;;;9.77;;
64957;SDS011;51486;50.232;19.208;2022-08-18T04:00:43;18.23;;;9.40;;
64957;SDS011;51486;50.232;19.208;2022-08-18T04:03:09;17.37;;;9.10;;
64957;SDS011;51486;50.232;19.208;2022-08-18T04:05:38;18.77;;;9.23;;
64957;SDS011;51486;50.232;19.208;2022-08-18T04:08:04;18.90;;;10.60;;
64957;SDS011;51486;50.232;19.208;2022-08-18T04:10:31;23.77;;;10.23;;
64957;SDS011;51486;50.232;19.208;2022-08-18T04:12:57;17.67;;;9.50;;
64957;SDS011;51486;50.232;19.208;2022-08-18T04:15:22;16.43;;;9.10;;
64957;SDS011;51486;50.232;19.208;2022-08-18T04:17:48;17.67;;;9.23;;
64957;SDS011;51486;50.232;19.208;2022-08-18T04:20:13;19.93;;;11.07;;
64957;SDS011;51486;50.232;19.208;2022-08-18T04:22:40;15.87;;;8.70;;
64957;SDS011;51486;50.232;19.208;2022-08-18T04:25:06;17.67;;;9.33;;
64957;SDS011;51486;50.232;19.208;2022-08-18T04:27:36;14.83;;;9.93;;
64957;SDS011;51486;50.232;19.208;2022-08-18T04:30:06;13.47;;;8.57;;
64957;SDS011;51486;50.232;19.208;2022-08-18T04:32:33;15.00;;;9.00;;
64957;SDS011;51486;50.232;19.208;2022-08-18T04:34:58;16.27;;;9.03;;
64957;SDS011;51486;50.232;19.208;2022-08-18T04:37:24;22.70;;;10.23;;
64957;SDS011;51486;50.232;19.208;2022-08-18T04:39:50;15.60;;;8.07;;
64957;SDS011;51486;50.232;19.208;2022-08-18T04:42:15;16.73;;;8.93;;
64957;SDS011;51486;50.232;19.208;2022-08-18T04:44:41;16.67;;;9.53;;
64957;SDS011;51486;50.232;19.208;2022-08-18T04:47:07;16.90;;;10.43;;
64957;SDS011;51486;50.232;19.208;2022-08-18T04:49:33;15.43;;;7.83;;
64957;SDS011;51486;50.232;19.208;2022-08-18T04:52:00;17.53;;;9.23;;
64957;SDS011;51486;50.232;19.208;2022-08-18T04:54:44;13.80;;;8.97;;
64957;SDS011;51486;50.232;19.208;2022-08-18T04:57:10;15.70;;;9.57;;
64957;SDS011;51486;50.232;19.208;2022-08-18T04:59:38;16.13;;;8.40;;
64957;SDS011;51486;50.232;19.208;2022-08-18T05:02:04;16.67;;;9.40;;
64957;SDS011;51486;50.232;19.208;2022-08-18T05:04:32;23.60;;;9.57;;
64957;SDS011;51486;50.232;19.208;2022-08-18T05:06:59;17.27;;;9.70;;
64957;SDS011;51486;50.232;19.208;2022-08-18T05:09:25;18.10;;;9.77;;
64957;SDS011;51486;50.232;19.208;2022-08-18T05:11:51;13.30;;;9.17;;
64957;SDS011;51486;50.232;19.208;2022-08-18T05:14:17;21.87;;;9.87;;
64957;SDS011;51486;50.232;19.208;2022-08-18T05:16:44;23.77;;;9.73;;
64957;SDS011;51486;50.232;19.208;2022-08-18T05:19:09;14.50;;;7.70;;
64957;SDS011;51486;50.232;19.208;2022-08-18T05:21:38;19.07;;;9.53;;
64957;SDS011;51486;50.232;19.208;2022-08-18T05:24:06;17.73;;;8.87;;
64957;SDS011;51486;50.232;19.208;2022-08-18T05:26:33;14.77;;;8.73;;
64957;SDS011;51486;50.232;19.208;2022-08-18T05:28:58;19.60;;;9.07;;
64957;SDS011;51486;50.232;19.208;2022-08-18T05:31:25;15.67;;;9.03;;
64957;SDS011;51486;50.232;19.208;2022-08-18T05:33:53;14.83;;;8.60;;
64957;SDS011;51486;50.232;19.208;2022-08-18T05:39:05;18.10;;;8.57;;
64957;SDS011;51486;50.232;19.208;2022-08-18T05:41:38;23.63;;;8.90;;
64957;SDS011;51486;50.232;19.208;2022-08-18T05:44:06;15.90;;;8.13;;
64957;SDS011;51486;50.232;19.208;2022-08-18T05:46:42;13.17;;;7.77;;
64957;SDS011;51486;50.232;19.208;2022-08-18T05:49:13;11.33;;;6.80;;
64957;SDS011;51486;50.232;19.208;2022-08-18T05:51:41;14.47;;;8.10;;
64957;SDS011;51486;50.232;19.208;2022-08-18T05:54:09;14.50;;;7.70;;
64957;SDS011;51486;50.232;19.208;2022-08-18T05:56:54;17.23;;;7.50;;
64957;SDS011;51486;50.232;19.208;2022-08-18T05:59:27;18.63;;;8.07;;
64957;SDS011;51486;50.232;19.208;2022-08-18T06:01:59;12.97;;;7.20;;
64957;SDS011;51486;50.232;19.208;2022-08-18T06:07:15;13.73;;;7.10;;
64957;SDS011;51486;50.232;19.208;2022-08-18T06:09:46;17.87;;;8.60;;
64957;SDS011;51486;50.232;19.208;2022-08-18T06:12:23;13.82;;;7.05;;
64957;SDS011;51486;50.232;19.208;2022-08-18T06:17:58;12.52;;;7.13;;
64957;SDS011;51486;50.232;19.208;2022-08-18T06:25:50;11.68;;;6.47;;
64957;SDS011;51486;50.232;19.208;2022-08-18T06:31:22;9.32;;;5.82;;
64957;SDS011;51486;50.232;19.208;2022-08-18T06:34:01;10.75;;;6.43;;
64957;SDS011;51486;50.232;19.208;2022-08-18T06:36:39;8.15;;;5.47;;
64957;SDS011;51486;50.232;19.208;2022-08-18T06:39:31;8.63;;;4.97;;
64957;SDS011;51486;50.232;19.208;2022-08-18T06:42:03;13.85;;;4.85;;
64957;SDS011;51486;50.232;19.208;2022-08-18T06:54:54;7.35;;;4.80;;
64957;SDS011;51486;50.232;19.208;2022-08-18T06:57:51;7.43;;;4.65;;
64957;SDS011;51486;50.232;19.208;2022-08-18T07:00:24;8.68;;;4.15;;
64957;SDS011;51486;50.232;19.208;2022-08-18T07:03:00;9.13;;;5.32;;
64957;SDS011;51486;50.232;19.208;2022-08-18T07:05:28;11.48;;;5.85;;
64957;SDS011;51486;50.232;19.208;2022-08-18T07:08:02;6.70;;;4.45;;
64957;SDS011;51486;50.232;19.208;2022-08-18T07:10:34;8.77;;;4.50;;
64957;SDS011;51486;50.232;19.208;2022-08-18T07:13:36;16.23;;;4.43;;
64957;SDS011;51486;50.232;19.208;2022-08-18T07:15:54;6.57;;;4.07;;
64957;SDS011;51486;50.232;19.208;2022-08-18T07:18:38;11.68;;;4.70;;
64957;SDS011;51486;50.232;19.208;2022-08-18T07:21:04;12.30;;;4.25;;
64957;SDS011;51486;50.232;19.208;2022-08-18T07:23:33;9.57;;;4.63;;
64957;SDS011;51486;50.232;19.208;2022-08-18T07:28:50;7.75;;;4.07;;
64957;SDS011;51486;50.232;19.208;2022-08-18T07:34:18;7.78;;;4.05;;
64957;SDS011;51486;50.232;19.208;2022-08-18T07:39:56;5.78;;;3.97;;
64957;SDS011;51486;50.232;19.208;2022-08-18T07:42:33;5.43;;;3.10;;
64957;SDS011;51486;50.232;19.208;2022-08-18T07:45:03;6.88;;;3.97;;
64957;SDS011;51486;50.232;19.208;2022-08-18T07:50:13;10.98;;;3.50;;
64957;SDS011;51486;50.232;19.208;2022-08-18T07:52:43;4.85;;;3.17;;
64957;SDS011;51486;50.232;19.208;2022-08-18T07:55:30;5.80;;;3.53;;
64957;SDS011;51486;50.232;19.208;2022-08-18T08:00:48;9.90;;;2.97;;
64957;SDS011;51486;50.232;19.208;2022-08-18T08:03:39;5.93;;;3.40;;
64957;SDS011;51486;50.232;19.208;2022-08-18T08:06:21;9.18;;;3.28;;
64957;SDS011;51486;50.232;19.208;2022-08-18T08:09:09;8.02;;;3.38;;
64957;SDS011;51486;50.232;19.208;2022-08-18T08:14:34;6.10;;;3.25;;
64957;SDS011;51486;50.232;19.208;2022-08-18T08:28:00;5.85;;;3.30;;
64957;SDS011;51486;50.232;19.208;2022-08-18T08:30:43;6.28;;;2.67;;
64957;SDS011;51486;50.232;19.208;2022-08-18T08:33:34;4.72;;;2.58;;
64957;SDS011;51486;50.232;19.208;2022-08-18T08:36:12;5.32;;;2.75;;
64957;SDS011;51486;50.232;19.208;2022-08-18T08:38:58;6.68;;;2.70;;
64957;SDS011;51486;50.232;19.208;2022-08-18T08:49:46;7.80;;;2.88;;
64957;SDS011;51486;50.232;19.208;2022-08-18T08:54:44;6.05;;;3.20;;
64957;SDS011;51486;50.232;19.208;2022-08-18T08:57:14;5.47;;;2.80;;
64957;SDS011;51486;50.232;19.208;2022-08-18T08:59:41;3.97;;;2.47;;
64957;SDS011;51486;50.232;19.208;2022-08-18T09:04:59;6.20;;;2.90;;
64957;SDS011;51486;50.232;19.208;2022-08-18T09:15:48;6.82;;;3.00;;
64957;SDS011;51486;50.232;19.208;2022-08-18T09:21:49;3.72;;;2.50;;
64957;SDS011;51486;50.232;19.208;2022-08-18T09:24:44;4.18;;;2.70;;
64957;SDS011;51486;50.232;19.208;2022-08-18T09:27:12;5.13;;;3.13;;
64957;SDS011;51486;50.232;19.208;2022-08-18T09:30:08;7.78;;;3.15;;
64957;SDS011;51486;50.232;19.208;2022-08-18T09:32:57;5.05;;;2.88;;
64957;SDS011;51486;50.232;19.208;2022-08-18T09:39:31;5.55;;;2.83;;
64957;SDS011;51486;50.232;19.208;2022-08-18T09:41:55;4.57;;;2.97;;
64957;SDS011;51486;50.232;19.208;2022-08-18T09:47:05;4.60;;;2.25;;
64957;SDS011;51486;50.232;19.208;2022-08-18T09:49:38;4.22;;;3.03;;
64957;SDS011;51486;50.232;19.208;2022-08-18T09:52:50;4.53;;;2.60;;
64957;SDS011;51486;50.232;19.208;2022-08-18T09:54:59;5.57;;;2.80;;
64957;SDS011;51486;50.232;19.208;2022-08-18T09:57:36;3.13;;;2.22;;
64957;SDS011;51486;50.232;19.208;2022-08-18T10:10:42;6.60;;;3.22;;
64957;SDS011;51486;50.232;19.208;2022-08-18T10:24:21;5.50;;;2.78;;
64957;SDS011;51486;50.232;19.208;2022-08-18T10:37:47;8.25;;;3.08;;
64957;SDS011;51486;50.232;19.208;2022-08-18T10:42:37;6.60;;;2.60;;
64957;SDS011;51486;50.232;19.208;2022-08-18T10:47:57;7.57;;;3.67;;
64957;SDS011;51486;50.232;19.208;2022-08-18T10:50:23;5.80;;;3.00;;
64957;SDS011;51486;50.232;19.208;2022-08-18T11:06:40;3.95;;;2.83;;
64957;SDS011;51486;50.232;19.208;2022-08-18T11:09:08;7.60;;;3.42;;
64957;SDS011;51486;50.232;19.208;2022-08-18T11:11:37;9.93;;;3.85;;
64957;SDS011;51486;50.232;19.208;2022-08-18T11:14:14;10.77;;;3.60;;
64957;SDS011;51486;50.232;19.208;2022-08-18T11:16:49;6.97;;;3.60;;
64957;SDS011;51486;50.232;19.208;2022-08-18T11:19:39;4.25;;;2.88;;
64957;SDS011;51486;50.232;19.208;2022-08-18T11:22:19;7.57;;;2.90;;
64957;SDS011;51486;50.232;19.208;2022-08-18T11:24:52;5.90;;;2.72;;
64957;SDS011;51486;50.232;19.208;2022-08-18T11:27:24;3.63;;;2.50;;
64957;SDS011;51486;50.232;19.208;2022-08-18T11:29:51;4.35;;;2.55;;
64957;SDS011;51486;50.232;19.208;2022-08-18T11:32:26;6.40;;;3.42;;
64957;SDS011;51486;50.232;19.208;2022-08-18T11:40:06;4.93;;;2.72;;
64957;SDS011;51486;50.232;19.208;2022-08-18T11:42:56;6.63;;;2.95;;
64957;SDS011;51486;50.232;19.208;2022-08-18T11:56:05;5.93;;;2.92;;
64957;SDS011;51486;50.232;19.208;2022-08-18T12:01:30;4.68;;;2.63;;
64957;SDS011;51486;50.232;19.208;2022-08-18T12:09:39;3.25;;;2.40;;
64957;SDS011;51486;50.232;19.208;2022-08-18T12:12:27;4.38;;;2.55;;
64957;SDS011;51486;50.232;19.208;2022-08-18T12:14:58;4.45;;;2.40;;
64957;SDS011;51486;50.232;19.208;2022-08-18T12:17:25;4.97;;;2.65;;
64957;SDS011;51486;50.232;19.208;2022-08-18T12:19:52;5.03;;;2.90;;
64957;SDS011;51486;50.232;19.208;2022-08-18T12:22:21;4.93;;;2.67;;
64957;SDS011;51486;50.232;19.208;2022-08-18T12:24:51;5.15;;;2.95;;
64957;SDS011;51486;50.232;19.208;2022-08-18T12:27:18;12.70;;;3.33;;
64957;SDS011;51486;50.232;19.208;2022-08-18T12:29:46;3.38;;;2.15;;
64957;SDS011;51486;50.232;19.208;2022-08-18T12:32:11;3.60;;;2.78;;
64957;SDS011;51486;50.232;19.208;2022-08-18T12:34:37;4.25;;;2.90;;
64957;SDS011;51486;50.232;19.208;2022-08-18T12:37:03;3.97;;;2.55;;
64957;SDS011;51486;50.232;19.208;2022-08-18T12:39:31;4.75;;;3.20;;
64957;SDS011;51486;50.232;19.208;2022-08-18T12:41:56;4.32;;;2.70;;
64957;SDS011;51486;50.232;19.208;2022-08-18T12:44:22;5.95;;;2.85;;
64957;SDS011;51486;50.232;19.208;2022-08-18T12:46:48;5.88;;;2.70;;
64957;SDS011;51486;50.232;19.208;2022-08-18T12:49:23;4.70;;;2.60;;
64957;SDS011;51486;50.232;19.208;2022-08-18T12:51:49;5.82;;;3.08;;
64957;SDS011;51486;50.232;19.208;2022-08-18T12:54:16;5.32;;;2.78;;
64957;SDS011;51486;50.232;19.208;2022-08-18T12:56:42;6.50;;;3.30;;
64957;SDS011;51486;50.232;19.208;2022-08-18T12:59:10;5.13;;;2.70;;
64957;SDS011;51486;50.232;19.208;2022-08-18T13:01:37;13.52;;;3.00;;
64957;SDS011;51486;50.232;19.208;2022-08-18T13:04:03;4.30;;;2.83;;
64957;SDS011;51486;50.232;19.208;2022-08-18T13:06:30;4.72;;;3.08;;
64957;SDS011;51486;50.232;19.208;2022-08-18T13:08:58;5.13;;;2.70;;
64957;SDS011;51486;50.232;19.208;2022-08-18T13:11:23;11.75;;;2.95;;
64957;SDS011;51486;50.232;19.208;2022-08-18T13:13:50;3.70;;;2.47;;
64957;SDS011;51486;50.232;19.208;2022-08-18T13:16:16;4.22;;;2.72;;
64957;SDS011;51486;50.232;19.208;2022-08-18T13:18:42;3.92;;;2.72;;
64957;SDS011;51486;50.232;19.208;2022-08-18T13:21:09;3.25;;;2.40;;
64957;SDS011;51486;50.232;19.208;2022-08-18T13:23:36;6.15;;;2.75;;
64957;SDS011;51486;50.232;19.208;2022-08-18T13:26:03;7.70;;;2.67;;
64957;SDS011;51486;50.232;19.208;2022-08-18T13:28:30;3.33;;;2.42;;
64957;SDS011;51486;50.232;19.208;2022-08-18T13:30:56;5.65;;;2.92;;
64957;SDS011;51486;50.232;19.208;2022-08-18T13:33:22;6.50;;;3.08;;
64957;SDS011;51486;50.232;19.208;2022-08-18T13:35:48;4.38;;;2.42;;
64957;SDS011;51486;50.232;19.208;2022-08-18T13:38:15;4.40;;;2.97;;
64957;SDS011;51486;50.232;19.208;2022-08-18T13:40:44;5.70;;;3.00;;
64957;SDS011;51486;50.232;19.208;2022-08-18T13:43:12;6.40;;;2.83;;
64957;SDS011;51486;50.232;19.208;2022-08-18T13:45:39;3.22;;;2.63;;
64957;SDS011;51486;50.232;19.208;2022-08-18T13:48:06;5.03;;;2.70;;
64957;SDS011;51486;50.232;19.208;2022-08-18T13:50:32;11.98;;;3.20;;
64957;SDS011;51486;50.232;19.208;2022-08-18T13:52:57;3.65;;;2.42;;
64957;SDS011;51486;50.232;19.208;2022-08-18T13:55:26;6.22;;;3.20;;
64957;SDS011;51486;50.232;19.208;2022-08-18T13:57:53;6.93;;;2.55;;
64957;SDS011;51486;50.232;19.208;2022-08-18T14:00:19;3.45;;;2.30;;
64957;SDS011;51486;50.232;19.208;2022-08-18T14:02:47;4.60;;;2.60;;
64957;SDS011;51486;50.232;19.208;2022-08-18T14:05:19;3.90;;;2.92;;
64957;SDS011;51486;50.232;19.208;2022-08-18T14:07:45;6.35;;;2.45;;
64957;SDS011;51486;50.232;19.208;2022-08-18T14:10:11;3.63;;;2.25;;
64957;SDS011;51486;50.232;19.208;2022-08-18T14:12:37;7.45;;;3.20;;
64957;SDS011;51486;50.232;19.208;2022-08-18T14:15:05;3.70;;;2.33;;
64957;SDS011;51486;50.232;19.208;2022-08-18T14:17:33;3.30;;;2.20;;
64957;SDS011;51486;50.232;19.208;2022-08-18T14:19:59;5.40;;;2.45;;
64957;SDS011;51486;50.232;19.208;2022-08-18T14:22:43;9.27;;;3.15;;
64957;SDS011;51486;50.232;19.208;2022-08-18T14:25:27;4.00;;;2.17;;
64957;SDS011;51486;50.232;19.208;2022-08-18T14:28:12;4.97;;;2.75;;
64957;SDS011;51486;50.232;19.208;2022-08-18T14:30:39;3.13;;;2.10;;
64957;SDS011;51486;50.232;19.208;2022-08-18T14:33:05;4.80;;;2.78;;
64957;SDS011;51486;50.232;19.208;2022-08-18T14:35:32;2.13;;;1.90;;
64957;SDS011;51486;50.232;19.208;2022-08-18T14:37:59;3.50;;;2.08;;
64957;SDS011;51486;50.232;19.208;2022-08-18T14:40:26;4.97;;;2.38;;
64957;SDS011;51486;50.232;19.208;2022-08-18T14:42:52;3.70;;;2.35;;
64957;SDS011;51486;50.232;19.208;2022-08-18T14:45:17;3.38;;;2.40;;
64957;SDS011;51486;50.232;19.208;2022-08-18T14:47:43;3.53;;;2.30;;
64957;SDS011;51486;50.232;19.208;2022-08-18T14:50:10;6.82;;;3.30;;
64957;SDS011;51486;50.232;19.208;2022-08-18T14:52:38;4.53;;;2.25;;
64957;SDS011;51486;50.232;19.208;2022-08-18T14:55:05;4.95;;;2.83;;
64957;SDS011;51486;50.232;19.208;2022-08-18T14:57:31;4.82;;;2.92;;
64957;SDS011;51486;50.232;19.208;2022-08-18T14:59:56;6.22;;;2.42;;
64957;SDS011;51486;50.232;19.208;2022-08-18T15:02:22;5.32;;;2.92;;
64957;SDS011;51486;50.232;19.208;2022-08-18T15:04:47;5.18;;;2.85;;
64957;SDS011;51486;50.232;19.208;2022-08-18T15:07:12;3.03;;;2.05;;
64957;SDS011;51486;50.232;19.208;2022-08-18T15:09:38;4.30;;;2.58;;
64957;SDS011;51486;50.232;19.208;2022-08-18T15:12:03;5.05;;;2.50;;
64957;SDS011;51486;50.232;19.208;2022-08-18T15:14:30;4.43;;;2.75;;
64957;SDS011;51486;50.232;19.208;2022-08-18T15:16:57;11.75;;;2.55;;
64957;SDS011;51486;50.232;19.208;2022-08-18T15:19:22;7.82;;;3.10;;
64957;SDS011;51486;50.232;19.208;2022-08-18T15:21:48;4.63;;;2.20;;
64957;SDS011;51486;50.232;19.208;2022-08-18T15:24:33;4.15;;;2.45;;
64957;SDS011;51486;50.232;19.208;2022-08-18T15:27:17;3.35;;;2.20;;
64957;SDS011;51486;50.232;19.208;2022-08-18T15:29:43;19.95;;;2.67;;
64957;SDS011;51486;50.232;19.208;2022-08-18T15:32:08;4.07;;;2.42;;
64957;SDS011;51486;50.232;19.208;2022-08-18T15:34:34;3.95;;;2.55;;
64957;SDS011;51486;50.232;19.208;2022-08-18T15:36:59;5.82;;;3.05;;
64957;SDS011;51486;50.232;19.208;2022-08-18T15:39:25;4.18;;;2.40;;
64957;SDS011;51486;50.232;19.208;2022-08-18T15:41:51;3.72;;;2.28;;
64957;SDS011;51486;50.232;19.208;2022-08-18T15:44:18;4.68;;;2.33;;
64957;SDS011;51486;50.232;19.208;2022-08-18T15:46:45;7.18;;;2.83;;
64957;SDS011;51486;50.232;19.208;2022-08-18T15:49:12;4.82;;;2.75;;
64957;SDS011;51486;50.232;19.208;2022-08-18T15:51:38;3.92;;;2.60;;
64957;SDS011;51486;50.232;19.208;2022-08-18T15:54:05;2.63;;;1.98;;
64957;SDS011;51486;50.232;19.208;2022-08-18T15:56:31;3.05;;;2.30;;
64957;SDS011;51486;50.232;19.208;2022-08-18T15:58:57;3.53;;;2.42;;
64957;SDS011;51486;50.232;19.208;2022-08-18T16:01:25;8.98;;;2.85;;
64957;SDS011;51486;50.232;19.208;2022-08-18T16:03:51;3.78;;;2.67;;
64957;SDS011;51486;50.232;19.208;2022-08-18T16:06:22;4.38;;;2.47;;
64957;SDS011;51486;50.232;19.208;2022-08-18T16:08:50;4.25;;;2.42;;
64957;SDS011;51486;50.232;19.208;2022-08-18T16:11:16;2.95;;;2.20;;
64957;SDS011;51486;50.232;19.208;2022-08-18T16:13:43;5.03;;;2.15;;
64957;SDS011;51486;50.232;19.208;2022-08-18T16:16:10;5.95;;;2.83;;
64957;SDS011;51486;50.232;19.208;2022-08-18T16:18:38;3.75;;;2.58;;
64957;SDS011;51486;50.232;19.208;2022-08-18T16:21:07;5.72;;;2.88;;
64957;SDS011;51486;50.232;19.208;2022-08-18T16:23:35;4.30;;;2.30;;
64957;SDS011;51486;50.232;19.208;2022-08-18T16:26:02;4.25;;;2.80;;
64957;SDS011;51486;50.232;19.208;2022-08-18T16:28:28;4.47;;;2.50;;
64957;SDS011;51486;50.232;19.208;2022-08-18T16:30:53;4.78;;;2.60;;
64957;SDS011;51486;50.232;19.208;2022-08-18T16:33:19;4.68;;;2.60;;
64957;SDS011;51486;50.232;19.208;2022-08-18T16:35:45;7.82;;;2.92;;
64957;SDS011;51486;50.232;19.208;2022-08-18T16:38:13;9.82;;;2.55;;
64957;SDS011;51486;50.232;19.208;2022-08-18T16:40:39;5.82;;;2.53;;
64957;SDS011;51486;50.232;19.208;2022-08-18T16:43:05;4.60;;;2.58;;
64957;SDS011;51486;50.232;19.208;2022-08-18T16:45:31;4.45;;;2.47;;
64957;SDS011;51486;50.232;19.208;2022-08-18T16:47:58;6.97;;;3.05;;
64957;SDS011;51486;50.232;19.208;2022-08-18T16:50:24;3.30;;;2.50;;
64957;SDS011;51486;50.232;19.208;2022-08-18T16:52:50;7.35;;;2.95;;
64957;SDS011;51486;50.232;19.208;2022-08-18T16:55:15;3.15;;;2.45;;
64957;SDS011;51486;50.232;19.208;2022-08-18T16:57:41;6.20;;;2.55;;
64957;SDS011;51486;50.232;19.208;2022-08-18T17:00:27;6.30;;;2.67;;
64957;SDS011;51486;50.232;19.208;2022-08-18T17:03:12;6.20;;;3.10;;
64957;SDS011;51486;50.232;19.208;2022-08-18T17:06:00;4.63;;;2.88;;
64957;SDS011;51486;50.232;19.208;2022-08-18T17:08:26;3.50;;;2.58;;
64957;SDS011;51486;50.232;19.208;2022-08-18T17:10:52;8.95;;;3.53;;
64957;SDS011;51486;50.232;19.208;2022-08-18T17:13:18;4.53;;;2.92;;
64957;SDS011;51486;50.232;19.208;2022-08-18T17:15:50;4.38;;;2.50;;
64957;SDS011;51486;50.232;19.208;2022-08-18T17:18:16;11.20;;;2.58;;
64957;SDS011;51486;50.232;19.208;2022-08-18T17:20:41;4.05;;;2.85;;
64957;SDS011;51486;50.232;19.208;2022-08-18T17:23:07;7.95;;;3.25;;
64957;SDS011;51486;50.232;19.208;2022-08-18T17:25:32;4.82;;;3.05;;
64957;SDS011;51486;50.232;19.208;2022-08-18T17:27:59;7.60;;;3.58;;
64957;SDS011;51486;50.232;19.208;2022-08-18T17:30:26;10.07;;;3.28;;